createdAt,value
2023-10-23T00:01:19.848Z,0.43
2023-10-23T00:03:46.549Z,0.70
2023-10-23T00:06:13.101Z,0.47
2023-10-23T00:08:39.486Z,1.15
2023-10-23T00:11:05.858Z,0.40
2023-10-23T00:13:32.205Z,0.40
2023-10-23T00:15:58.560Z,0.50
2023-10-23T00:18:26.200Z,1.42
2023-10-23T00:20:52.592Z,0.73
2023-10-23T00:23:18.920Z,0.38
2023-10-23T00:25:45.919Z,0.43
2023-10-23T00:28:12.260Z,0.47
2023-10-23T00:30:38.647Z,0.40
2023-10-23T00:33:05.081Z,0.40
2023-10-23T00:35:32.650Z,0.43
2023-10-23T00:37:59.021Z,0.70
2023-10-23T00:40:25.595Z,0.45
2023-10-23T00:42:52.144Z,0.35
2023-10-23T00:45:18.605Z,0.80
2023-10-23T00:47:45.036Z,0.30
2023-10-23T00:50:11.665Z,0.35
2023-10-23T00:52:38.043Z,0.45
2023-10-23T00:55:04.801Z,0.50
2023-10-23T00:57:31.869Z,0.40
2023-10-23T00:59:58.605Z,0.50
2023-10-23T01:02:25.847Z,0.50
2023-10-23T01:04:53.129Z,0.45
2023-10-23T01:07:19.487Z,0.60
2023-10-23T01:09:45.905Z,0.90
2023-10-23T01:12:12.348Z,0.50
2023-10-23T01:14:38.889Z,0.80
2023-10-23T01:17:05.401Z,0.60
2023-10-23T01:19:31.802Z,0.80
2023-10-23T01:21:58.185Z,0.50
2023-10-23T01:24:24.923Z,0.63
2023-10-23T01:26:51.549Z,1.13
2023-10-23T01:29:17.880Z,0.75
2023-10-23T01:31:44.286Z,1.65
2023-10-23T01:34:10.647Z,0.82
2023-10-23T01:36:39.100Z,1.33
2023-10-23T01:39:05.569Z,0.88
2023-10-23T01:41:31.921Z,1.00
2023-10-23T01:43:58.280Z,1.25
2023-10-23T01:46:24.680Z,1.10
2023-10-23T01:48:51.136Z,1.35
2023-10-23T01:51:17.698Z,1.15
2023-10-23T01:53:44.118Z,1.33
2023-10-23T01:56:10.498Z,0.80
2023-10-23T01:58:36.944Z,0.90
2023-10-23T02:01:03.469Z,1.05
2023-10-23T02:03:31.047Z,1.10
2023-10-23T02:05:57.752Z,0.80
2023-10-23T02:08:25.301Z,1.20
2023-10-23T02:10:52.114Z,1.27
2023-10-23T02:13:18.487Z,0.90
2023-10-23T02:15:44.932Z,1.00
2023-10-23T02:18:11.379Z,1.08
2023-10-23T02:20:38.074Z,0.70
2023-10-23T02:23:04.424Z,0.75
2023-10-23T02:25:30.787Z,1.10
2023-10-23T02:27:57.228Z,1.10
2023-10-23T02:30:23.671Z,0.75
2023-10-23T02:32:50.069Z,1.73
2023-10-23T02:35:16.705Z,2.00
2023-10-23T02:37:43.040Z,1.30
2023-10-23T02:40:09.613Z,1.20
2023-10-23T02:42:36.044Z,1.98
2023-10-23T02:45:02.394Z,1.45
2023-10-23T02:47:28.789Z,1.63
2023-10-23T02:49:55.284Z,1.63
2023-10-23T02:52:22.166Z,1.63
2023-10-23T02:54:50.132Z,1.10
2023-10-23T02:57:16.541Z,1.13
2023-10-23T02:59:47.919Z,1.30
2023-10-23T03:02:15.051Z,0.90
2023-10-23T03:04:41.489Z,0.75
2023-10-23T03:07:08.774Z,0.88
2023-10-23T03:09:35.173Z,0.93
2023-10-23T03:12:01.534Z,0.90
2023-10-23T03:14:27.867Z,0.73
2023-10-23T03:16:54.355Z,0.85
2023-10-23T03:19:23.575Z,1.60
2023-10-23T03:21:50.006Z,0.98
2023-10-23T03:24:16.377Z,1.30
2023-10-23T03:26:42.829Z,1.05
2023-10-23T03:29:09.154Z,0.68
2023-10-23T03:31:36.239Z,1.15
2023-10-23T03:34:02.687Z,0.75
2023-10-23T03:36:29.064Z,0.80
2023-10-23T03:38:55.926Z,0.73
2023-10-23T03:41:22.301Z,0.70
2023-10-23T03:43:48.635Z,1.10
2023-10-23T03:46:15.168Z,0.90
2023-10-23T03:48:41.648Z,0.95
2023-10-23T03:51:08.043Z,0.65
2023-10-23T03:53:34.517Z,1.20
2023-10-23T03:56:01.027Z,0.70
2023-10-23T03:58:27.391Z,1.23
2023-10-23T04:00:54.167Z,1.30
2023-10-23T04:03:20.682Z,1.10
2023-10-23T04:05:47.205Z,0.85
2023-10-23T04:08:13.536Z,1.27
2023-10-23T04:10:45.562Z,0.80
2023-10-23T04:13:11.916Z,1.42
2023-10-23T04:15:38.308Z,2.20
2023-10-23T04:18:04.736Z,0.90
2023-10-23T04:20:31.178Z,3.78
2023-10-23T04:22:57.529Z,1.10
2023-10-23T04:25:23.874Z,1.20
2023-10-23T04:27:50.292Z,0.93
2023-10-23T04:30:17.820Z,1.00
2023-10-23T04:32:44.218Z,0.98
2023-10-23T04:35:10.664Z,0.95
2023-10-23T04:37:36.990Z,0.90
2023-10-23T04:40:03.515Z,0.70
2023-10-23T04:42:29.950Z,0.70
2023-10-23T04:44:56.302Z,0.80
2023-10-23T04:47:22.747Z,0.90
2023-10-23T04:49:49.204Z,1.52
2023-10-23T04:52:15.680Z,0.70
2023-10-23T04:54:42.040Z,1.00
2023-10-23T04:57:09.663Z,0.50
2023-10-23T04:59:36.905Z,0.50
2023-10-23T05:02:04.211Z,0.60
2023-10-23T05:04:31.866Z,0.90
2023-10-23T05:06:58.623Z,2.60
2023-10-23T05:09:24.964Z,1.00
2023-10-23T05:11:51.419Z,0.80
2023-10-23T05:14:17.761Z,1.27
2023-10-23T05:16:44.132Z,0.77
2023-10-23T05:19:10.493Z,0.88
2023-10-23T05:21:36.964Z,0.60
2023-10-23T05:24:04.410Z,0.65
2023-10-23T05:26:30.781Z,0.50
2023-10-23T05:28:57.112Z,1.55
2023-10-23T05:31:23.503Z,0.77
2023-10-23T05:33:50.529Z,0.70
2023-10-23T05:36:16.980Z,0.60
2023-10-23T05:38:43.327Z,0.40
2023-10-23T05:41:10.847Z,0.45
2023-10-23T05:43:37.520Z,0.40
2023-10-23T05:46:05.125Z,0.43
2023-10-23T05:48:32.226Z,1.65
2023-10-23T05:51:05.859Z,0.50
2023-10-23T05:53:32.607Z,0.50
2023-10-23T05:56:05.748Z,0.52
2023-10-23T05:58:32.451Z,0.40
2023-10-23T06:01:04.242Z,0.32
2023-10-23T06:03:30.686Z,0.32
2023-10-23T06:05:57.057Z,0.30
2023-10-23T06:08:23.414Z,0.38
2023-10-23T06:10:49.798Z,0.40
2023-10-23T06:13:16.133Z,0.63
2023-10-23T06:15:42.549Z,0.40
2023-10-23T06:18:09.073Z,0.40
2023-10-23T06:20:35.588Z,0.30
2023-10-23T06:23:02.249Z,0.20
2023-10-23T06:25:30.316Z,0.35
2023-10-23T06:27:57.204Z,0.30
2023-10-23T06:30:23.586Z,0.38
2023-10-23T06:32:50.322Z,0.70
2023-10-23T06:35:17.041Z,0.30
2023-10-23T06:37:43.406Z,0.38
2023-10-23T06:40:10.067Z,0.20
2023-10-23T06:42:36.404Z,0.30
2023-10-23T06:45:02.803Z,0.32
2023-10-23T06:47:29.241Z,0.20
2023-10-23T06:49:55.603Z,0.43
2023-10-23T06:52:21.944Z,0.75
2023-10-23T06:54:48.345Z,1.17
2023-10-23T06:57:14.749Z,0.57
2023-10-23T06:59:41.338Z,0.70
2023-10-23T07:02:08.064Z,1.38
2023-10-23T07:04:35.281Z,0.30
2023-10-23T07:07:08.094Z,0.47
2023-10-23T07:09:40.869Z,0.73
2023-10-23T07:12:07.677Z,0.30
2023-10-23T07:14:34.020Z,0.52
2023-10-23T07:17:00.417Z,0.55
2023-10-23T07:19:26.841Z,0.65
2023-10-23T07:21:53.206Z,0.70
2023-10-23T07:24:19.653Z,1.02
2023-10-23T07:26:46.158Z,0.82
2023-10-23T07:29:12.535Z,1.58
2023-10-23T07:31:39.585Z,1.13
2023-10-23T07:34:06.037Z,0.57
2023-10-23T07:36:32.388Z,0.77
2023-10-23T07:38:58.730Z,0.82
2023-10-23T07:41:25.076Z,0.60
2023-10-23T07:43:51.695Z,0.52
2023-10-23T07:46:18.724Z,0.40
2023-10-23T07:48:45.638Z,0.85
2023-10-23T07:51:12.164Z,1.17
2023-10-23T07:53:38.586Z,0.60
2023-10-23T07:56:05.634Z,0.70
2023-10-23T07:58:32.185Z,0.60
2023-10-23T08:01:01.969Z,0.70
2023-10-23T08:03:28.473Z,0.80
2023-10-23T08:05:54.899Z,0.70
2023-10-23T08:08:21.232Z,0.90
2023-10-23T08:10:47.572Z,1.42
2023-10-23T08:13:13.982Z,0.75
2023-10-23T08:15:41.828Z,1.17
2023-10-23T08:18:11.698Z,0.88
2023-10-23T08:20:45.500Z,0.80
2023-10-23T08:23:11.840Z,0.50
2023-10-23T08:25:38.178Z,0.60
2023-10-23T08:28:04.682Z,0.60
2023-10-23T08:30:31.129Z,0.70
2023-10-23T08:32:57.599Z,0.70
2023-10-23T08:35:28.540Z,1.70
2023-10-23T08:37:55.819Z,0.50
2023-10-23T08:40:25.495Z,0.70
2023-10-23T08:42:51.878Z,0.50
2023-10-23T08:45:18.483Z,0.95
2023-10-23T08:47:45.067Z,0.65
2023-10-23T08:50:11.787Z,0.73
2023-10-23T08:52:44.282Z,0.63
2023-10-23T08:55:12.460Z,0.95
2023-10-23T08:57:39.886Z,0.68
2023-10-23T09:00:07.434Z,1.70
2023-10-23T09:02:34.425Z,2.05
2023-10-23T09:05:18.722Z,0.57
2023-10-23T09:07:48.362Z,0.50
2023-10-23T09:10:16.048Z,0.45
2023-10-23T09:12:42.614Z,0.60
2023-10-23T09:15:15.503Z,0.47
2023-10-23T09:17:42.796Z,0.40
2023-10-23T09:20:20.439Z,0.60
2023-10-23T09:22:49.773Z,0.50
2023-10-23T09:25:16.142Z,0.47
2023-10-23T09:27:42.573Z,0.50
2023-10-23T09:30:10.096Z,0.38
2023-10-23T09:32:37.974Z,0.82
2023-10-23T09:35:07.916Z,0.80
2023-10-23T09:37:36.706Z,0.68
2023-10-23T09:40:07.037Z,1.38
2023-10-23T09:42:33.398Z,0.50
2023-10-23T09:45:04.816Z,0.60
2023-10-23T09:47:31.777Z,0.93
2023-10-23T09:50:00.017Z,1.52
2023-10-23T09:52:27.859Z,0.63
2023-10-23T09:54:59.938Z,1.00
2023-10-23T09:57:32.995Z,0.70
2023-10-23T10:00:01.369Z,0.88
2023-10-23T10:02:30.541Z,1.10
2023-10-23T10:05:07.308Z,0.52
2023-10-23T10:07:40.198Z,1.58
2023-10-23T10:10:07.992Z,1.00
2023-10-23T10:12:38.840Z,0.93
2023-10-23T10:15:10.056Z,0.70
2023-10-23T10:17:43.198Z,1.13
2023-10-23T10:20:11.583Z,0.55
2023-10-23T10:22:41.055Z,1.45
2023-10-23T10:25:08.849Z,0.90
2023-10-23T10:27:35.955Z,0.93
2023-10-23T10:30:06.476Z,1.67
2023-10-23T10:34:26.109Z,0.70
2023-10-23T10:35:41.018Z,1.10
2023-10-23T10:38:14.006Z,0.57
2023-10-23T10:40:59.245Z,1.30
2023-10-23T10:43:35.909Z,0.65
2023-10-23T10:46:05.471Z,0.90
2023-10-23T10:48:41.582Z,0.45
2023-10-23T10:51:07.954Z,1.33
2023-10-23T10:53:35.194Z,0.80
2023-10-23T10:56:01.717Z,1.20
2023-10-23T10:58:28.145Z,0.90
2023-10-23T11:00:54.820Z,0.68
2023-10-23T11:03:21.372Z,0.90
2023-10-23T11:05:47.979Z,1.02
2023-10-23T11:08:14.482Z,0.63
2023-10-23T11:10:42.228Z,2.08
2023-10-23T11:13:08.859Z,0.52
2023-10-23T11:15:35.285Z,0.95
2023-10-23T11:18:01.938Z,1.20
2023-10-23T11:20:32.370Z,0.82
2023-10-23T11:22:59.211Z,0.55
2023-10-23T11:25:25.718Z,0.75
2023-10-23T11:27:52.816Z,0.80
2023-10-23T11:30:19.541Z,0.70
2023-10-23T11:32:46.755Z,0.80
2023-10-23T11:35:13.214Z,0.60
2023-10-23T11:37:43.187Z,1.83
2023-10-23T11:40:10.640Z,0.75
2023-10-23T11:42:43.271Z,0.70
2023-10-23T11:45:10.570Z,1.45
2023-10-23T11:47:38.727Z,0.80
2023-10-23T11:50:08.824Z,0.75
2023-10-23T11:52:35.875Z,0.80
2023-10-23T11:55:05.157Z,0.70
2023-10-23T11:57:33.269Z,1.17
2023-10-23T11:59:59.640Z,0.95
2023-10-23T12:02:26.057Z,0.50
2023-10-23T12:04:52.572Z,0.90
2023-10-23T12:07:19.069Z,0.80
2023-10-23T12:09:46.306Z,0.80
2023-10-23T12:12:12.809Z,1.15
2023-10-23T12:14:41.270Z,0.82
2023-10-23T12:17:08.015Z,1.02
2023-10-23T12:19:34.443Z,0.52
2023-10-23T12:22:01.353Z,0.75
2023-10-23T12:24:27.784Z,1.02
2023-10-23T12:26:55.090Z,1.80
2023-10-23T12:29:23.328Z,0.70
2023-10-23T12:32:01.881Z,1.02
2023-10-23T12:34:31.874Z,0.50
2023-10-23T12:36:58.947Z,1.33
2023-10-23T12:39:26.572Z,1.20
2023-10-23T12:41:52.992Z,0.63
2023-10-23T12:44:19.405Z,0.40
2023-10-23T12:46:49.490Z,0.50
2023-10-23T12:49:18.055Z,0.50
2023-10-23T12:51:44.494Z,0.40
2023-10-23T12:54:12.118Z,1.05
2023-10-23T12:56:38.562Z,0.85
2023-10-23T12:59:06.107Z,0.43
2023-10-23T13:01:32.626Z,0.50
2023-10-23T13:04:00.995Z,0.40
2023-10-23T13:06:27.564Z,0.47
2023-10-23T13:08:53.944Z,1.75
2023-10-23T13:11:20.373Z,0.60
2023-10-23T13:13:46.742Z,0.98
2023-10-23T13:16:15.777Z,0.50
2023-10-23T13:18:45.061Z,0.40
2023-10-23T13:21:32.276Z,0.60
2023-10-23T13:24:00.901Z,1.33
2023-10-23T13:26:27.381Z,0.65
2023-10-23T13:28:53.737Z,0.47
2023-10-23T13:31:20.141Z,0.50
2023-10-23T13:33:46.723Z,0.35
2023-10-23T13:36:13.058Z,1.42
2023-10-23T13:38:39.456Z,0.43
2023-10-23T13:41:07.129Z,0.50
2023-10-23T13:43:33.721Z,0.50
2023-10-23T13:46:00.745Z,0.35
2023-10-23T13:48:27.392Z,0.50
2023-10-23T13:50:53.952Z,0.30
2023-10-23T13:53:21.771Z,1.60
2023-10-23T13:55:48.651Z,0.40
2023-10-23T13:58:15.033Z,0.38
2023-10-23T14:00:41.599Z,0.40
2023-10-23T14:03:08.544Z,0.45
2023-10-23T14:05:35.035Z,0.45
2023-10-23T14:08:04.453Z,0.40
2023-10-23T14:10:30.942Z,0.50
2023-10-23T14:12:57.887Z,1.45
2023-10-23T14:15:24.681Z,0.60
2023-10-23T14:17:51.406Z,0.32
2023-10-23T14:20:17.921Z,0.50
2023-10-23T14:22:44.278Z,0.60
2023-10-23T14:25:11.134Z,0.77
2023-10-23T14:27:39.593Z,0.93
2023-10-23T14:30:08.364Z,0.77
2023-10-23T14:32:39.945Z,0.65
2023-10-23T14:35:07.222Z,0.43
2023-10-23T14:37:33.606Z,0.55
2023-10-23T14:40:00.287Z,0.70
2023-10-23T14:42:26.889Z,0.60
2023-10-23T14:44:53.271Z,0.65
2023-10-23T14:47:19.762Z,0.38
2023-10-23T14:49:46.243Z,0.45
2023-10-23T14:52:12.669Z,0.40
2023-10-23T14:54:39.154Z,0.30
2023-10-23T14:57:05.766Z,0.50
2023-10-23T14:59:32.638Z,0.20
2023-10-23T15:01:59.948Z,0.40
2023-10-23T15:04:27.254Z,0.30
2023-10-23T15:06:53.729Z,2.40
2023-10-23T15:09:21.222Z,0.40
2023-10-23T15:11:47.598Z,0.98
2023-10-23T15:14:13.970Z,0.40
2023-10-23T15:16:40.442Z,0.50
2023-10-23T15:19:06.970Z,1.25
2023-10-23T15:21:33.350Z,1.80
2023-10-23T15:24:00.367Z,0.40
2023-10-23T15:26:26.981Z,0.98
2023-10-23T15:28:53.343Z,0.90
2023-10-23T15:31:19.853Z,2.28
2023-10-23T15:33:46.252Z,1.02
2023-10-23T15:36:13.632Z,1.48
2023-10-23T15:38:40.214Z,0.70
2023-10-23T15:41:10.324Z,1.52
2023-10-23T15:43:37.697Z,1.02
2023-10-23T15:46:04.445Z,1.25
2023-10-23T15:48:31.123Z,0.88
2023-10-23T15:50:57.996Z,0.90
2023-10-23T15:53:24.749Z,0.80
2023-10-23T15:55:51.219Z,1.33
2023-10-23T15:58:17.641Z,1.13
2023-10-23T16:00:45.231Z,0.82
2023-10-23T16:03:11.847Z,0.93
2023-10-23T16:05:39.417Z,0.98
2023-10-23T16:08:06.069Z,1.05
2023-10-23T16:10:33.249Z,1.98
2023-10-23T16:12:59.639Z,1.85
2023-10-23T16:15:26.260Z,1.77
2023-10-23T16:17:52.660Z,1.75
2023-10-23T16:20:19.024Z,0.90
2023-10-23T16:22:45.362Z,0.98
2023-10-23T16:25:11.736Z,1.52
2023-10-23T16:27:38.162Z,1.02
2023-10-23T16:30:05.554Z,1.63
2023-10-23T16:32:31.952Z,1.08
2023-10-23T16:34:59.064Z,1.10
2023-10-23T16:37:27.832Z,0.82
2023-10-23T16:39:54.309Z,1.38
2023-10-23T16:42:21.524Z,1.20
2023-10-23T16:44:55.842Z,1.70
2023-10-23T16:47:23.286Z,1.20
2023-10-23T16:49:50.826Z,1.83
2023-10-23T16:52:17.313Z,1.23
2023-10-23T16:54:43.673Z,1.70
2023-10-23T16:57:10.544Z,2.10
2023-10-23T16:59:37.231Z,2.38
2023-10-23T17:02:03.869Z,2.45
2023-10-23T17:04:31.471Z,2.08
2023-10-23T17:06:57.923Z,2.22
2023-10-23T17:09:24.274Z,2.33
2023-10-23T17:11:50.621Z,2.70
2023-10-23T17:14:16.975Z,2.28
2023-10-23T17:16:43.443Z,2.55
2023-10-23T17:19:11.570Z,2.13
2023-10-23T17:21:38.044Z,2.42
2023-10-23T17:24:04.496Z,2.50
2023-10-23T17:26:30.904Z,2.97
2023-10-23T17:28:57.351Z,2.78
2023-10-23T17:31:23.772Z,2.97
2023-10-23T17:33:50.197Z,2.47
2023-10-23T17:36:18.246Z,2.72
2023-10-23T17:38:44.594Z,2.45
2023-10-23T17:41:17.388Z,3.78
2023-10-23T17:43:44.050Z,4.07
2023-10-23T17:46:11.306Z,2.45
2023-10-23T17:48:38.005Z,3.75
2023-10-23T17:51:04.817Z,3.63
2023-10-23T17:53:31.466Z,3.65
2023-10-23T17:55:57.830Z,2.90
2023-10-23T17:58:25.683Z,2.72
2023-10-23T18:00:52.078Z,2.95
2023-10-23T18:03:19.418Z,3.15
2023-10-23T18:05:47.289Z,3.85
2023-10-23T18:08:13.689Z,3.20
2023-10-23T18:10:40.065Z,4.03
2023-10-23T18:13:06.476Z,3.40
2023-10-23T18:15:32.863Z,4.05
2023-10-23T18:17:59.290Z,3.42
2023-10-23T18:20:29.045Z,3.90
2023-10-23T18:22:58.086Z,2.30
2023-10-23T18:25:24.591Z,2.63
2023-10-23T18:27:51.105Z,2.60
2023-10-23T18:30:17.459Z,2.38
2023-10-23T18:32:44.608Z,3.20
2023-10-23T18:35:12.095Z,2.90
2023-10-23T18:37:38.866Z,2.88
2023-10-23T18:40:05.918Z,2.55
2023-10-23T18:42:37.200Z,2.67
2023-10-23T18:45:06.121Z,3.20
2023-10-23T18:47:33.499Z,3.38
2023-10-23T18:50:01.348Z,2.70
2023-10-23T18:52:27.704Z,3.58
2023-10-23T18:54:54.077Z,4.13
2023-10-23T18:57:20.415Z,3.53
2023-10-23T18:59:49.774Z,3.42
2023-10-23T19:02:16.230Z,3.40
2023-10-23T19:04:42.688Z,3.10
2023-10-23T19:07:09.075Z,3.80
2023-10-23T19:09:35.445Z,2.80
2023-10-23T19:12:01.862Z,3.30
2023-10-23T19:14:28.187Z,3.55
2023-10-23T19:16:54.677Z,2.45
2023-10-23T19:19:22.322Z,3.60
2023-10-23T19:21:48.740Z,3.50
2023-10-23T19:24:15.623Z,2.20
2023-10-23T19:26:43.667Z,2.67
2023-10-23T19:29:10.022Z,3.13
2023-10-23T19:31:36.547Z,5.00
2023-10-23T19:34:03.125Z,2.08
2023-10-23T19:36:31.736Z,2.95
2023-10-23T19:38:58.310Z,2.90
2023-10-23T19:41:34.912Z,2.38
2023-10-23T19:44:01.408Z,2.50
2023-10-23T19:46:28.015Z,2.72
2023-10-23T19:48:54.568Z,2.92
2023-10-23T19:51:21.393Z,2.50
2023-10-23T19:53:50.347Z,3.40
2023-10-23T19:56:19.708Z,2.42
2023-10-23T19:58:55.800Z,2.83
2023-10-23T20:01:22.246Z,2.78
2023-10-23T20:03:48.746Z,2.45
2023-10-23T20:06:15.213Z,2.10
2023-10-23T20:08:41.624Z,3.45
2023-10-23T20:11:08.175Z,2.00
2023-10-23T20:13:34.547Z,3.70
2023-10-23T20:16:01.764Z,3.38
2023-10-23T20:18:28.220Z,2.63
2023-10-23T20:20:54.915Z,2.33
2023-10-23T20:23:21.306Z,2.75
2023-10-23T20:25:48.205Z,2.25
2023-10-23T20:28:14.615Z,3.00
2023-10-23T20:30:41.570Z,2.00
2023-10-23T20:33:08.630Z,3.97
2023-10-23T20:35:35.062Z,2.58
2023-10-23T20:38:01.393Z,2.50
2023-10-23T20:40:27.852Z,3.17
2023-10-23T20:42:54.222Z,2.53
2023-10-23T20:45:21.875Z,2.47
2023-10-23T20:47:49.030Z,2.83
2023-10-23T20:50:15.437Z,3.13
2023-10-23T20:52:41.809Z,2.28
2023-10-23T20:55:08.291Z,1.95
2023-10-23T20:57:34.693Z,2.13
2023-10-23T21:00:01.022Z,2.10
2023-10-23T21:02:27.518Z,1.55
2023-10-23T21:04:53.989Z,1.50
2023-10-23T21:07:20.366Z,1.67
2023-10-23T21:09:46.721Z,3.08
2023-10-23T21:12:13.041Z,1.60
2023-10-23T21:14:47.424Z,1.67
2023-10-23T21:17:14.424Z,1.70
2023-10-23T21:19:41.192Z,1.73
2023-10-23T21:22:07.763Z,1.52
2023-10-23T21:24:34.472Z,1.27
2023-10-23T21:27:00.810Z,1.77
2023-10-23T21:29:27.163Z,1.35
2023-10-23T21:31:53.978Z,1.90
2023-10-23T21:34:20.542Z,1.73
2023-10-23T21:36:47.030Z,1.33
2023-10-23T21:39:13.429Z,1.67
2023-10-23T21:41:40.640Z,1.90
2023-10-23T21:44:07.610Z,1.17
2023-10-23T21:46:34.075Z,1.10
2023-10-23T21:49:05.221Z,1.30
2023-10-23T21:51:32.155Z,1.52
2023-10-23T21:53:58.766Z,1.45
2023-10-23T21:57:19.385Z,1.13
2023-10-23T21:59:12.304Z,2.10
2023-10-23T22:01:40.598Z,1.30
2023-10-23T22:04:08.122Z,1.60
2023-10-23T22:06:34.670Z,1.50
2023-10-23T22:09:01.151Z,1.42
2023-10-23T22:11:27.668Z,1.63
2023-10-23T22:13:54.147Z,1.65
2023-10-23T22:16:22.402Z,1.20
2023-10-23T22:18:51.302Z,1.33
2023-10-23T22:21:17.973Z,2.10
2023-10-23T22:23:44.377Z,1.48
2023-10-23T22:26:10.795Z,2.40
2023-10-23T22:28:37.260Z,1.08
2023-10-23T22:31:04.872Z,1.35
2023-10-23T22:33:31.957Z,1.40
2023-10-23T22:35:58.322Z,1.52
2023-10-23T22:38:24.666Z,1.92
2023-10-23T22:40:52.234Z,1.95
2023-10-23T22:43:18.671Z,2.22
2023-10-23T22:45:55.834Z,1.30
2023-10-23T22:48:28.419Z,1.52
2023-10-23T22:50:54.931Z,2.70
2023-10-23T22:53:22.823Z,1.35
2023-10-23T22:55:53.000Z,2.72
2023-10-23T22:58:20.673Z,2.30
2023-10-23T23:00:47.253Z,1.73
2023-10-23T23:03:13.719Z,1.63
2023-10-23T23:05:41.454Z,2.35
2023-10-23T23:08:09.286Z,1.85
2023-10-23T23:13:26.651Z,1.40
2023-10-23T23:15:53.305Z,1.48
2023-10-23T23:18:21.144Z,1.15
2023-10-23T23:20:48.195Z,1.20
2023-10-23T23:23:14.515Z,1.38
2023-10-23T23:25:40.921Z,1.80
2023-10-23T23:28:07.426Z,1.73
2023-10-23T23:30:33.800Z,1.42
2023-10-23T23:33:00.155Z,1.48
2023-10-23T23:35:26.605Z,1.77
2023-10-23T23:37:52.951Z,1.75
2023-10-23T23:40:19.380Z,3.58
2023-10-23T23:42:45.744Z,2.47
2023-10-23T23:45:12.208Z,2.78
2023-10-23T23:47:38.575Z,1.88
2023-10-23T23:50:05.270Z,1.75
2023-10-23T23:52:33.402Z,1.88
2023-10-23T23:54:59.955Z,1.83
2023-10-23T23:57:26.364Z,2.13
2023-10-23T23:59:52.701Z,1.98
